Flight Track Log - Related Links

Times and Time Zones

All times are in EDT time to prevent confusion due to time zone crossing. See the AWI3962 flight status page for this flight to view local times or setup timezone preferences in your user account.

Time Position Orientation Groundspeed Altitude Reporting Facility
EDT Latitude Longitude Course Direction KTS MPH feet Rate Location/Type
Sun 05:53:57 PM 42.6967 -73.8661 233° Southwest 216 249 4,800  Level Boston Center
Sun 05:54:50 PM 42.7050 -73.9394 279° West 222 255 6,700 2,191 Climbing Boston Center
Sun 05:55:00 PM 42.5046 -73.9297 201° Southwest  Level Estimated
Sun 05:55:52 PM 42.6903 -74.0347 258° West 267 307 9,000  Level Boston Center
Sun 05:56:00 PM 42.4230 -73.9721 201° Southwest  Level Estimated
Sun 05:56:54 PM 42.6392 -74.1281 233° Southwest 282 325 10,900  Level Boston Center
Sun 05:57:00 PM 42.3414 -74.0144 201° Southwest  Level Estimated
Sun 05:57:55 PM 42.5858 -74.2250 233° Southwest 319 367 12,900  Level Boston Center
Sun 05:58:57 PM 42.5303 -74.3244 233° Southwest 327 376 15,200 1,500 Climbing Boston Center
Sun 05:59:59 PM 42.4694 -74.4342 233° Southwest 337 388 16,000 387 Climbing Boston Center
Sun 06:01:01 PM 42.4128 -74.5386 234° Southwest 344 396 16,000  Level Boston Center
Sun 06:02:03 PM 42.3514 -74.6472 233° Southwest 342 394 16,000  Level Boston Center
Sun 06:03:04 PM 42.2942 -74.7506 233° Southwest 342 394 16,000 -49 Level Boston Center
Sun 06:04:06 PM 42.2369 -74.8517 233° Southwest 341 392 15,900  Descending Boston Center
Sun 06:05:07 PM 42.1800 -74.9522 233° Southwest 341 392 16,000 49 Climbing Boston Center
Sun 06:06:09 PM 42.0994 -75.0214 213° Southwest 344 396 16,000 48 Level Boston Center
Sun 06:07:11 PM 42.0103 -75.0944 211° Southwest 346 398 16,100 49 Climbing Boston Center
Sun 06:08:12 PM 41.9300 -75.1606 212° Southwest 345 397 16,100  Level Boston Center
Sun 06:09:14 PM 41.8478 -75.2278 211° Southwest 346 398 16,100 -62 Level Boston Center
Sun 06:09:49 PM 41.8028 -75.2675 213° Southwest 351 404 16,000 -316 Descending New York Center
Sun 06:10:49 PM 41.7192 -75.3339 211° Southwest 351 404 15,600 -950 Descending New York Center
Sun 06:11:49 PM 41.6289 -75.4056 211° Southwest 351 404 14,100 -1,350 Descending New York Center
Sun 06:12:49 PM 41.5492 -75.4719 212° Southwest 351 404 12,900 -1,050 Descending New York Center
Sun 06:13:49 PM 41.4697 -75.5358 211° Southwest 351 404 12,000 -450 Descending New York Center
Sun 06:14:49 PM 41.3964 -75.5942 211° Southwest 346 398 12,000  Level New York Center
Sun 06:15:49 PM 41.3042 -75.6619 209° Southwest 352 405 12,000  Level New York Center
Sun 06:16:49 PM 41.2136 -75.6858 191° South 341 392 12,000  Level New York Center
Sun 06:17:49 PM 41.1156 -75.6869 180° South 346 398 12,000  Level New York Center
Sun 06:18:49 PM 41.0217 -75.6883 181° South 351 404 12,000  Level New York Center
Sun 06:19:49 PM 40.9322 -75.6875 180° South 351 404 12,000  Level New York Center
Sun 06:20:49 PM 40.8364 -75.6861 179° South 351 404 12,000  Level New York Center
Sun 06:21:49 PM 40.7356 -75.6542 167° South 329 379 12,000 -250 Level New York Center
Sun 06:22:49 PM 40.6528 -75.5936 151° Southeast 339 390 11,500 -850 Descending New York Center
Sun 06:23:49 PM 40.5822 -75.5339 147° Southeast 333 383 10,300 -750 Descending New York Center
Sun 06:24:49 PM 40.5094 -75.4797 150° Southeast 301 346 10,000 -300 Descending New York Center
Sun 06:25:49 PM 40.4344 -75.4228 150° Southeast 306 352 9,700 -850 Descending New York Center
Sun 06:26:49 PM 40.3611 -75.3797 156° South 306 352 8,300 -1,350 Descending New York Center
Sun 06:27:49 PM 40.2958 -75.3428 157° South 288 331 7,000 -650 Descending New York Center
Sun 06:28:49 PM 40.2100 -75.3561 187° South 279 321 7,000  Level New York Center
Sun 06:29:49 PM 40.1356 -75.3892 199° South 284 327 7,000  Level New York Center
Sun 06:30:49 PM 40.0617 -75.4169 196° South 290 334 7,000  Level New York Center
Sun 06:31:49 PM 40.0039 -75.4022 169° South 254 292 7,000 -500 Level New York Center
Sun 06:32:49 PM 39.9436 -75.3981 177° South 219 252 6,000 -500 Descending New York Center
Sun 06:33:49 PM 39.9200 -75.4642 245° Southwest 170 196 6,000 -200 Level New York Center
Sun 06:34:49 PM 39.8983 -75.5358 249° West 190 219 5,600 -550 Descending New York Center
Sun 06:35:49 PM 39.8833 -75.5997 253° West 212 244 4,900 -1,059 Descending New York Center
Sun 06:36:48 PM 39.8333 -75.6000 180° South 196 226 3,500 -912 Descending Philadelphia TRACON
Sun 06:37:54 PM 39.8000 -75.5333 123° Southeast 180 207 3,000 -238 Descending Philadelphia TRACON
Sun 06:38:54 PM 39.8167 -75.4833 67° East 173 199 3,000 -250 Level Philadelphia TRACON
Sun 06:39:54 PM 39.8333 -75.4167 72° East 175 201 2,500 -810 Descending Philadelphia TRACON
Sun 06:41:00 PM 39.8500 -75.3500 72° East 152 175 1,300 -900 Descending Philadelphia TRACON
Sun 06:41:54 PM 39.8500 -75.3167 90° East 127 146 700 -667 Descending Philadelphia TRACON
Sun 06:43:00 PM 39.8667 -75.2333 79° East  Level FlightAware Approximate
Sun 06:50:00 PM 39.8722 -75.2409 79° East  Level Estimated
Sun 06:51:00 PM 39.8722 -75.2409 262° West  Level Estimated

Login

Don't have an account? Register now (free) for customized features, flight alerts, and more!